createdAt,value
2024-04-19T00:09:25.855Z,100.00
2024-04-19T00:31:57.880Z,100.00
2024-04-19T00:54:29.935Z,100.00
2024-04-19T01:17:01.926Z,100.00
2024-04-19T01:39:33.935Z,100.00
2024-04-19T02:02:05.954Z,100.00
2024-04-19T02:24:38.147Z,100.00
2024-04-19T02:47:10.156Z,100.00
2024-04-19T03:09:42.027Z,100.00
2024-04-19T03:32:13.956Z,100.00
2024-04-19T03:54:45.853Z,100.00
2024-04-19T04:17:17.877Z,100.00
2024-04-19T04:39:49.938Z,100.00
2024-04-19T05:02:21.996Z,100.00
2024-04-19T05:24:54.003Z,100.00
2024-04-19T05:47:25.946Z,100.00
2024-04-19T06:09:57.976Z,100.00
2024-04-19T06:32:30.133Z,100.00
2024-04-19T06:55:02.252Z,100.00
2024-04-19T07:17:35.724Z,100.00
2024-04-19T07:40:09.718Z,100.00
2024-04-19T08:02:41.705Z,100.00
2024-04-19T08:25:13.619Z,100.00
2024-04-19T08:47:47.208Z,100.00
2024-04-19T09:10:22.883Z,94.65
2024-04-19T09:32:55.384Z,97.54
2024-04-19T09:55:36.604Z,98.35
2024-04-19T10:18:09.029Z,78.06
2024-04-19T10:40:41.579Z,65.51
2024-04-19T11:03:19.875Z,67.84
2024-04-19T11:25:56.833Z,80.10
2024-04-19T11:48:29.625Z,56.72
2024-04-19T12:11:01.960Z,100.00
2024-04-19T12:33:34.306Z,88.79
2024-04-19T12:56:07.210Z,100.00
2024-04-19T13:18:39.395Z,74.45
2024-04-19T13:41:11.435Z,61.82
2024-04-19T14:03:43.756Z,68.65
2024-04-19T14:26:22.764Z,68.27
2024-04-19T14:48:55.556Z,72.33
2024-04-19T15:11:27.656Z,80.42
2024-04-19T15:34:09.874Z,100.00
2024-04-19T15:56:51.966Z,100.00
2024-04-19T16:19:24.803Z,100.00
2024-04-19T16:41:58.190Z,100.00
2024-04-19T17:04:30.589Z,100.00
2024-04-19T17:27:02.702Z,100.00
2024-04-19T17:49:34.754Z,100.00
2024-04-19T18:12:08.083Z,100.00
2024-04-19T18:34:39.946Z,100.00
2024-04-19T18:57:11.793Z,100.00
2024-04-19T19:19:44.354Z,100.00
2024-04-19T19:42:16.798Z,100.00
2024-04-19T20:05:07.268Z,100.00
2024-04-19T20:27:39.281Z,100.00
2024-04-19T20:50:16.921Z,100.00
2024-04-19T21:12:48.784Z,100.00
2024-04-19T21:35:20.874Z,100.00
2024-04-19T21:57:55.343Z,100.00
2024-04-19T22:20:27.402Z,100.00
2024-04-19T22:42:59.349Z,100.00
2024-04-19T23:05:31.277Z,100.00
2024-04-19T23:28:03.326Z,100.00
2024-04-19T23:50:38.525Z,100.00
